Time;durP1;ratioP1;P1;durP2;ratioP2;P2;SDS_P1;SDS_P2;PMS_P1;PMS_P2;Temp;Humidity;BMP_temperature;BMP_pressure;BME280_temperature;BME280_humidity;BME280_pressure;Samples;Min_cycle;Max_cycle;Signal;HPM_P1;HPM_P2
2023/12/14 00:01:10;;;;;;;;;;;;;;;5.87;97.43;100090.28;4153585;28;20017;-70
2023/12/14 00:03:12;;;;;;;;;;;;;;;5.87;97.20;100092.16;4156202;28;20027;-69
2023/12/14 00:05:14;;;;;;;;;;;;;;;5.86;97.36;100094.00;4155237;28;20016;-69
2023/12/14 00:07:16;;;;;;;;;;;;;;;5.84;97.40;100095.97;4155926;28;20020;-68
2023/12/14 00:09:17;;;;;;;;;;;;;;;5.83;97.04;100099.69;4155455;28;20024;-69
2023/12/14 00:11:19;;;;;;;;;;;;;;;5.83;97.18;100101.50;4155830;28;19939;-69
2023/12/14 00:13:22;;;;;;;;;;;;;;;5.82;97.38;100105.19;4155616;28;21562;-70
2023/12/14 00:15:24;;;;;;;;;;;;;;;5.82;97.23;100105.19;4154026;28;20443;-70
2023/12/14 00:17:26;;;;;;;;;;;;;;;5.81;97.11;100114.22;4135385;28;19926;-70
2023/12/14 00:19:28;;;;;;;;;;;;;;;5.79;97.31;100117.06;4154397;28;20016;-69
2023/12/14 00:21:30;;;;;;;;;;;;;;;5.78;97.24;100113.56;4155153;28;20033;-69
2023/12/14 00:23:31;;;;;;;;;;;;;;;5.77;97.09;100119.09;4151543;28;20032;-69
2023/12/14 00:25:33;;;;;;;;;;;;;;;5.76;97.12;100128.13;4155533;28;19929;-69
2023/12/14 00:27:35;;;;;;;;;;;;;;;5.77;96.94;100127.94;4154897;28;20009;-70
2023/12/14 00:29:39;;;;;;;;;;;;;;;5.76;97.14;100130.78;4155239;28;20011;-71
2023/12/14 00:31:41;;;;;;;;;;;;;;;5.74;96.75;100133.63;4155112;28;20015;-69
2023/12/14 00:33:43;;;;;;;;;;;;;;;5.75;96.89;100138.00;4155196;28;20013;-69
2023/12/14 00:35:45;;;;;;;;;;;;;;;5.76;96.82;100141.50;4155712;28;20439;-68
2023/12/14 00:37:47;;;;;;;;;;;;;;;5.73;96.96;100141.84;4155348;28;20398;-70
2023/12/14 00:39:49;;;;;;;;;;;;;;;5.71;96.80;100144.66;4153863;28;20474;-69
2023/12/14 00:41:50;;;;;;;;;;;;;;;5.72;97.11;100148.19;4155743;28;20024;-70
2023/12/14 00:43:52;;;;;;;;;;;;;;;5.71;96.93;100150.03;4155194;28;21261;-70
2023/12/14 00:45:55;;;;;;;;;;;;;;;5.69;96.93;100151.19;4155017;28;20016;-70
2023/12/14 00:47:57;;;;;;;;;;;;;;;5.71;97.08;100154.56;4155804;28;20036;-69
2023/12/14 00:49:59;;;;;;;;;;;;;;;5.69;96.94;100161.91;4153217;28;20559;-70
2023/12/14 00:52:02;;;;;;;;;;;;;;;5.65;96.60;100156.03;4154897;28;20033;-71
2023/12/14 00:54:04;;;;;;;;;;;;;;;5.65;96.84;100166.75;4150539;28;20471;-70
2023/12/14 00:56:08;;;;;;;;;;;;;;;5.65;96.69;100169.41;4151972;28;20024;-71
2023/12/14 00:58:12;;;;;;;;;;;;;;;5.64;96.70;100169.56;4153804;28;19960;-71
2023/12/14 01:00:15;;;;;;;;;;;;;;;5.64;97.02;100169.56;4154560;28;20027;-70
2023/12/14 01:02:17;;;;;;;;;;;;;;;5.65;97.04;100171.28;4155204;28;20012;-69
2023/12/14 01:04:19;;;;;;;;;;;;;;;5.64;96.78;100175.75;4154879;28;20019;-70
2023/12/14 01:06:20;;;;;;;;;;;;;;;5.63;96.60;100182.16;4154687;28;20015;-70
2023/12/14 01:08:22;;;;;;;;;;;;;;;5.63;96.75;100181.28;4154972;28;20358;-68
2023/12/14 01:10:24;;;;;;;;;;;;;;;5.62;96.66;100193.84;4150391;28;20021;-69
2023/12/14 01:12:26;;;;;;;;;;;;;;;5.61;96.19;100197.50;4154852;28;20559;-69
2023/12/14 01:14:28;;;;;;;;;;;;;;;5.58;96.32;100201.38;4154605;28;20015;-67
2023/12/14 01:16:30;;;;;;;;;;;;;;;5.59;96.38;100208.41;4155338;28;20016;-71
2023/12/14 01:18:33;;;;;;;;;;;;;;;5.57;96.32;100207.72;4137317;28;19930;-70
2023/12/14 01:20:35;;;;;;;;;;;;;;;5.55;96.22;100207.03;4153545;28;20009;-70
2023/12/14 01:22:37;;;;;;;;;;;;;;;5.52;95.81;100207.34;4154709;28;20475;-70
2023/12/14 01:24:39;;;;;;;;;;;;;;;5.50;96.10;100212.03;4153700;28;20037;-70
2023/12/14 01:26:41;;;;;;;;;;;;;;;5.51;95.92;100218.22;4154920;28;20016;-70
2023/12/14 01:28:43;;;;;;;;;;;;;;;5.51;96.11;100223.59;4154602;28;20483;-71
2023/12/14 01:30:45;;;;;;;;;;;;;;;5.50;95.71;100232.59;4152586;28;20021;-70
2023/12/14 01:32:47;;;;;;;;;;;;;;;5.46;95.63;100226.72;4154707;28;20016;-68
2023/12/14 01:34:50;;;;;;;;;;;;;;;5.46;95.54;100233.94;4154555;28;20028;-70
2023/12/14 01:36:52;;;;;;;;;;;;;;;5.44;95.34;100239.44;4154890;28;20028;-71
2023/12/14 01:38:54;;;;;;;;;;;;;;;5.41;95.38;100240.59;4154904;28;19961;-70
2023/12/14 01:40:56;;;;;;;;;;;;;;;5.37;94.89;100244.56;4154498;28;20456;-70
2023/12/14 01:43:06;;;;;;;;;;;;;;;5.36;95.15;100247.41;4155583;28;20369;-70
2023/12/14 01:45:08;;;;;;;;;;;;;;;5.36;94.94;100245.59;4137716;28;20024;-70
2023/12/14 01:47:10;;;;;;;;;;;;;;;5.37;95.08;100254.44;4154460;28;20660;-71
2023/12/14 01:49:12;;;;;;;;;;;;;;;5.36;94.63;100247.41;4155048;28;20020;-70
2023/12/14 01:51:15;;;;;;;;;;;;;;;5.34;94.86;100260.09;4154755;28;20021;-70
2023/12/14 01:53:17;;;;;;;;;;;;;;;5.34;94.89;100260.09;4154575;28;20016;-70
2023/12/14 01:55:18;;;;;;;;;;;;;;;5.31;94.49;100255.06;4154939;28;20063;-70
2023/12/14 01:57:20;;;;;;;;;;;;;;;5.30;94.73;100258.72;4155113;28;20125;-70
2023/12/14 01:59:23;;;;;;;;;;;;;;;5.29;94.66;100257.91;4153169;28;19969;-70
2023/12/14 02:01:40;;;;;;;;;;;;;;;5.26;94.62;100260.88;4154483;28;20344;-70
2023/12/14 02:03:44;;;;;;;;;;;;;;;5.26;94.50;100262.72;4154262;28;20024;-69
2023/12/14 02:05:45;;;;;;;;;;;;;;;5.24;94.43;100268.22;4151127;28;20024;-69
2023/12/14 02:07:49;;;;;;;;;;;;;;;5.23;94.53;100270.09;4154747;28;20032;-70
2023/12/14 02:09:51;;;;;;;;;;;;;;;5.22;94.18;100276.41;4136192;28;20055;-70
2023/12/14 02:11:52;;;;;;;;;;;;;;;5.22;94.21;100273.75;4154578;28;20364;-71
2023/12/14 02:13:54;;;;;;;;;;;;;;;5.20;94.14;100270.38;4154518;28;19925;-70
2023/12/14 02:15:56;;;;;;;;;;;;;;;5.18;94.23;100275.03;4154516;28;20458;-70
2023/12/14 02:17:58;;;;;;;;;;;;;;;5.20;94.49;100274.88;4154540;28;20020;-70
2023/12/14 02:20:00;;;;;;;;;;;;;;;5.20;94.23;100280.25;4154483;28;20056;-70
2023/12/14 02:22:01;;;;;;;;;;;;;;;5.17;94.08;100273.38;4154509;28;20456;-69
2023/12/14 02:24:05;;;;;;;;;;;;;;;5.17;94.38;100280.53;4152912;28;19929;-71
2023/12/14 02:26:07;;;;;;;;;;;;;;;5.15;94.56;100277.19;4152884;28;20009;-70
2023/12/14 02:28:09;;;;;;;;;;;;;;;5.14;94.58;100283.53;4154163;28;20371;-70
2023/12/14 02:30:11;;;;;;;;;;;;;;;5.12;94.40;100285.53;4154488;28;20023;-70
2023/12/14 02:32:13;;;;;;;;;;;;;;;5.09;94.09;100280.47;4156558;28;20451;-70
2023/12/14 02:34:15;;;;;;;;;;;;;;;5.09;94.18;100283.97;4156025;28;20024;-70
2023/12/14 02:36:17;;;;;;;;;;;;;;;5.09;94.49;100280.47;4156828;28;20016;-70
2023/12/14 02:38:19;;;;;;;;;;;;;;;5.07;94.14;100293.19;4153518;28;20431;-69
2023/12/14 02:40:22;;;;;;;;;;;;;;;5.08;94.26;100292.16;4157067;28;20438;-69
2023/12/14 02:42:23;;;;;;;;;;;;;;;5.07;94.12;100293.19;4155369;28;20450;-70
2023/12/14 02:44:25;;;;;;;;;;;;;;;5.05;93.86;100294.16;4157596;28;19925;-69
2023/12/14 02:46:26;;;;;;;;;;;;;;;5.05;93.93;100296.00;4157565;28;20004;-70
2023/12/14 02:48:29;;;;;;;;;;;;;;;5.04;94.15;100291.63;4157807;28;19925;-70
2023/12/14 02:50:31;;;;;;;;;;;;;;;5.03;94.22;100295.28;4155442;28;20025;-69
2023/12/14 02:52:33;;;;;;;;;;;;;;;5.02;94.00;100294.47;4158397;28;20547;-69
2023/12/14 02:54:34;;;;;;;;;;;;;;;5.04;94.04;100299.66;4140190;28;20032;-69
2023/12/14 02:56:37;;;;;;;;;;;;;;;5.01;94.21;100306.16;4157279;28;20016;-69
2023/12/14 02:58:39;;;;;;;;;;;;;;;5.00;94.03;100308.97;4151353;28;20510;-70
2023/12/14 03:00:40;;;;;;;;;;;;;;;5.00;94.40;100314.34;4156645;28;20376;-69
2023/12/14 03:02:42;;;;;;;;;;;;;;;5.00;94.02;100308.97;4156947;28;19925;-70
2023/12/14 03:04:44;;;;;;;;;;;;;;;5.00;94.18;100315.19;4156938;28;20016;-67
2023/12/14 03:06:46;;;;;;;;;;;;;;;5.00;94.03;100311.66;4150958;28;20020;-68
2023/12/14 03:08:47;;;;;;;;;;;;;;;5.00;94.37;100319.69;4157147;28;20004;-69
2023/12/14 03:10:49;;;;;;;;;;;;;;;4.99;93.96;100326.06;4156768;28;20303;-69
2023/12/14 03:12:52;;;;;;;;;;;;;;;4.98;93.95;100322.50;4157089;28;20035;-69
2023/12/14 03:14:53;;;;;;;;;;;;;;;4.97;94.04;100328.88;4157099;28;20474;-68
2023/12/14 03:16:55;;;;;;;;;;;;;;;4.95;94.00;100332.69;4156146;28;19933;-67
2023/12/14 03:18:57;;;;;;;;;;;;;;;4.95;93.83;100324.66;4157301;28;20024;-69
2023/12/14 03:20:59;;;;;;;;;;;;;;;4.96;93.86;100335.22;4156550;28;20450;-67
2023/12/14 03:23:00;;;;;;;;;;;;;;;4.97;94.15;100344.06;4156723;28;20019;-68
2023/12/14 03:25:03;;;;;;;;;;;;;;;4.96;94.15;100342.41;4156722;28;19929;-71
2023/12/14 03:27:04;;;;;;;;;;;;;;;4.92;94.10;100347.22;4156807;28;20021;-68
2023/12/14 03:29:08;;;;;;;;;;;;;;;4.92;93.82;100352.59;4155765;28;20027;-69
2023/12/14 03:31:10;;;;;;;;;;;;;;;4.90;93.86;100349.19;4156242;28;20016;-69
2023/12/14 03:33:12;;;;;;;;;;;;;;;4.90;93.99;100351.03;4156654;28;20024;-67
2023/12/14 03:35:13;;;;;;;;;;;;;;;4.86;94.01;100348.66;4155757;28;20008;-68
2023/12/14 03:37:15;;;;;;;;;;;;;;;4.88;94.53;100356.53;4157150;28;20373;-68
2023/12/14 03:39:17;;;;;;;;;;;;;;;4.89;94.50;100358.22;4152559;28;20369;-70
2023/12/14 03:41:19;;;;;;;;;;;;;;;4.88;94.43;100360.03;4155928;28;19925;-70
2023/12/14 03:43:21;;;;;;;;;;;;;;;4.89;94.42;100360.91;4155474;28;20013;-69
2023/12/14 03:45:24;;;;;;;;;;;;;;;4.87;94.48;100368.22;4155970;28;20032;-70
2023/12/14 03:47:26;;;;;;;;;;;;;;;4.86;94.64;100363.88;4156106;28;20028;-68
2023/12/14 03:49:28;;;;;;;;;;;;;;;4.84;94.63;100373.88;4156191;28;20012;-68
2023/12/14 03:51:30;;;;;;;;;;;;;;;4.84;94.75;100377.41;4156620;28;20020;-68
2023/12/14 03:53:32;;;;;;;;;;;;;;;4.83;94.84;100373.03;4156293;28;20071;-69
2023/12/14 03:55:34;;;;;;;;;;;;;;;4.85;94.66;100383.59;4156227;28;20019;-68
2023/12/14 03:57:36;;;;;;;;;;;;;;;4.83;94.58;100385.59;4156078;28;20020;-68
2023/12/14 03:59:39;;;;;;;;;;;;;;;4.84;94.60;100385.44;4154178;28;20012;-70
2023/12/14 04:01:43;;;;;;;;;;;;;;;4.84;94.61;100389.91;4155258;28;20012;-70
2023/12/14 04:03:44;;;;;;;;;;;;;;;4.84;94.64;100395.28;4151386;28;20020;-67
2023/12/14 04:05:46;;;;;;;;;;;;;;;4.84;94.68;100412.19;4156351;28;20031;-69
2023/12/14 04:07:48;;;;;;;;;;;;;;;4.84;94.49;100404.16;4155853;28;20056;-72
2023/12/14 04:09:50;;;;;;;;;;;;;;;4.83;94.58;100399.78;4155023;28;20025;-69
2023/12/14 04:11:51;;;;;;;;;;;;;;;4.84;94.59;100400.63;4156017;28;20483;-71
2023/12/14 04:13:53;;;;;;;;;;;;;;;4.84;94.58;100404.16;4156396;28;19929;-68
2023/12/14 04:15:55;;;;;;;;;;;;;;;4.83;94.46;100399.78;4155611;28;20028;-69
2023/12/14 04:17:58;;;;;;;;;;;;;;;4.82;94.79;100411.47;4155512;28;20463;-71
2023/12/14 04:20:00;;;;;;;;;;;;;;;4.83;94.95;100413.19;4157194;28;20028;-68
2023/12/14 04:22:02;;;;;;;;;;;;;;;4.82;94.85;100416.81;4152814;28;19929;-69
2023/12/14 04:24:04;;;;;;;;;;;;;;;4.82;94.96;100419.50;4155709;28;20019;-68
2023/12/14 04:26:07;;;;;;;;;;;;;;;4.82;94.69;100421.34;4155461;28;20024;-68
2023/12/14 04:28:09;;;;;;;;;;;;;;;4.83;95.13;100423.03;4151061;28;20032;-68
2023/12/14 04:30:11;;;;;;;;;;;;;;;4.82;95.04;100432.88;4155493;28;20035;-68
2023/12/14 04:32:13;;;;;;;;;;;;;;;4.81;95.03;100423.19;4155813;28;20020;-69
2023/12/14 04:34:18;;;;;;;;;;;;;;;4.81;94.56;100433.91;4154955;28;20784;-68
2023/12/14 04:36:20;;;;;;;;;;;;;;;4.81;94.56;100431.22;4155788;28;20008;-70
2023/12/14 04:38:22;;;;;;;;;;;;;;;4.80;94.59;100448.25;4155737;28;20510;-70
2023/12/14 04:40:25;;;;;;;;;;;;;;;4.79;94.67;100443.03;4156334;28;20032;-69
2023/12/14 04:42:27;;;;;;;;;;;;;;;4.77;94.51;100445.03;4153668;28;20383;-70
2023/12/14 04:44:29;;;;;;;;;;;;;;;4.77;94.61;100450.38;4155430;28;20367;-68
2023/12/14 04:46:31;;;;;;;;;;;;;;;4.76;94.67;100454.03;4155246;28;20020;-71
2023/12/14 04:48:33;;;;;;;;;;;;;;;4.75;94.56;100457.69;4154852;28;20056;-69
2023/12/14 04:50:36;;;;;;;;;;;;;;;4.76;94.76;100460.22;4155033;28;20024;-70
2023/12/14 04:52:38;;;;;;;;;;;;;;;4.77;94.79;100455.75;4155382;28;20020;-67
2023/12/14 04:54:42;;;;;;;;;;;;;;;4.78;94.81;100465.44;4155604;28;20024;-69
2023/12/14 04:56:46;;;;;;;;;;;;;;;4.75;95.24;100458.56;4155235;28;20004;-69
2023/12/14 04:58:48;;;;;;;;;;;;;;;4.76;95.14;100462.91;4154349;28;20435;-68
2023/12/14 05:00:49;;;;;;;;;;;;;;;4.76;95.21;100462.91;4154711;28;20020;-69
2023/12/14 05:02:51;;;;;;;;;;;;;;;4.76;95.23;100464.75;4155628;28;19933;-68
2023/12/14 05:04:53;;;;;;;;;;;;;;;4.76;95.54;100464.75;4155148;28;20008;-68
2023/12/14 05:06:56;;;;;;;;;;;;;;;4.76;95.29;100472.78;4155606;28;20015;-68
2023/12/14 05:09:01;;;;;;;;;;;;;;;4.76;95.47;100478.97;4155543;28;20340;-69
2023/12/14 05:11:03;;;;;;;;;;;;;;;4.77;95.35;100474.47;4154228;28;20028;-68
2023/12/14 05:13:05;;;;;;;;;;;;;;;4.76;95.58;100486.97;4155745;28;20023;-69
2023/12/14 05:15:07;;;;;;;;;;;;;;;4.76;95.29;100481.63;4155004;28;20020;-68
2023/12/14 05:17:09;;;;;;;;;;;;;;;4.76;95.62;100478.13;4150711;28;20008;-68
2023/12/14 05:19:12;;;;;;;;;;;;;;;4.77;95.34;100485.16;4155635;28;20024;-68
2023/12/14 05:21:17;;;;;;;;;;;;;;;4.75;95.21;100489.81;4154878;28;20432;-71
2023/12/14 05:23:20;;;;;;;;;;;;;;;4.75;95.61;100490.66;4135393;28;19937;-69
2023/12/14 05:25:21;;;;;;;;;;;;;;;4.74;95.58;100497.00;4137393;28;20407;-69
2023/12/14 05:27:24;;;;;;;;;;;;;;;4.76;95.48;100508.38;4154865;28;19929;-68
2023/12/14 05:29:26;;;;;;;;;;;;;;;4.76;95.73;100508.38;4153785;28;20438;-69
2023/12/14 05:31:28;;;;;;;;;;;;;;;4.76;95.59;100515.59;4153142;28;20023;-72
2023/12/14 05:33:31;;;;;;;;;;;;;;;4.77;95.26;100517.28;4155044;28;20036;-70
2023/12/14 05:35:33;;;;;;;;;;;;;;;4.78;95.39;100529.66;4154243;28;20012;-70
2023/12/14 05:37:35;;;;;;;;;;;;;;;4.78;95.36;100530.50;4155014;28;19932;-69
2023/12/14 05:39:38;;;;;;;;;;;;;;;4.77;95.52;100536.84;4154789;28;20008;-70
2023/12/14 05:41:41;;;;;;;;;;;;;;;4.77;95.50;100544.88;4153906;28;20048;-68
2023/12/14 05:43:43;;;;;;;;;;;;;;;4.77;95.57;100544.88;4144356;28;19958;-69
2023/12/14 05:45:45;;;;;;;;;;;;;;;4.76;95.20;100550.38;4154502;28;20036;-68
2023/12/14 05:47:47;;;;;;;;;;;;;;;4.77;95.30;100552.06;4154732;28;20020;-69
2023/12/14 05:49:49;;;;;;;;;;;;;;;4.78;95.34;100561.75;4154731;28;20016;-67
2023/12/14 05:51:50;;;;;;;;;;;;;;;4.77;95.74;100568.13;4152604;28;20057;-70
2023/12/14 05:53:52;;;;;;;;;;;;;;;4.77;95.53;100560.09;4154209;28;20463;-69
2023/12/14 05:55:56;;;;;;;;;;;;;;;4.77;95.54;100571.63;4154653;28;20054;-70
2023/12/14 05:57:58;;;;;;;;;;;;;;;4.77;95.81;100563.59;4155061;28;20015;-69
2023/12/14 06:00:00;;;;;;;;;;;;;;;4.78;95.64;100565.28;4154234;28;20023;-70
2023/12/14 06:02:02;;;;;;;;;;;;;;;4.80;96.04;100567.84;4154037;28;20041;-72
2023/12/14 06:04:04;;;;;;;;;;;;;;;4.79;95.80;100572.31;4153757;28;20022;-70
2023/12/14 06:06:05;;;;;;;;;;;;;;;4.79;95.92;100568.81;4154101;28;20028;-70
2023/12/14 06:08:07;;;;;;;;;;;;;;;4.80;95.68;100573.19;4156988;28;20016;-69
2023/12/14 06:10:10;;;;;;;;;;;;;;;4.78;95.37;100567.09;4155819;28;20016;-68
2023/12/14 06:12:13;;;;;;;;;;;;;;;4.78;95.77;100576.00;4158001;28;20033;-70
2023/12/14 06:14:16;;;;;;;;;;;;;;;4.79;95.70;100571.47;4156751;28;20017;-68
2023/12/14 06:16:18;;;;;;;;;;;;;;;4.78;95.88;100585.84;4138740;28;20540;-70
2023/12/14 06:18:20;;;;;;;;;;;;;;;4.80;95.80;100594.59;4157362;28;19971;-70
2023/12/14 06:20:22;;;;;;;;;;;;;;;4.79;96.09;100591.03;4156113;28;20095;-69
2023/12/14 06:22:24;;;;;;;;;;;;;;;4.78;96.13;100597.41;4156573;28;20023;-69
2023/12/14 06:24:28;;;;;;;;;;;;;;;4.79;95.98;100596.41;4157502;28;19926;-69
2023/12/14 06:26:29;;;;;;;;;;;;;;;4.79;95.98;100592.88;4158250;28;20031;-70
2023/12/14 06:28:33;;;;;;;;;;;;;;;4.79;95.79;100603.59;4158332;28;20024;-68
2023/12/14 06:30:35;;;;;;;;;;;;;;;4.79;95.70;100600.91;4157034;28;20028;-71
2023/12/14 06:32:37;;;;;;;;;;;;;;;4.78;95.79;100608.09;4157769;28;20011;-69
2023/12/14 06:34:39;;;;;;;;;;;;;;;4.79;95.79;100606.25;4157120;28;20020;-69
2023/12/14 06:36:42;;;;;;;;;;;;;;;4.80;96.05;100608.81;4157536;28;20020;-68
2023/12/14 06:38:44;;;;;;;;;;;;;;;4.78;95.65;100608.09;4156054;28;20383;-68
2023/12/14 06:40:46;;;;;;;;;;;;;;;4.80;95.80;100610.63;4157154;28;20028;-69
2023/12/14 06:42:49;;;;;;;;;;;;;;;4.80;95.77;100610.63;4156990;28;20032;-70
2023/12/14 06:44:52;;;;;;;;;;;;;;;4.81;95.69;100613.19;4157235;28;20459;-68
2023/12/14 06:46:54;;;;;;;;;;;;;;;4.80;96.02;100614.16;4159033;28;20024;-70
2023/12/14 06:48:56;;;;;;;;;;;;;;;4.80;95.74;100621.34;4157862;28;20056;-68
2023/12/14 06:50:57;;;;;;;;;;;;;;;4.79;95.83;100619.66;4158845;28;20032;-69
2023/12/14 06:52:59;;;;;;;;;;;;;;;4.79;95.47;100625.00;4157573;28;20507;-68
2023/12/14 06:55:01;;;;;;;;;;;;;;;4.80;95.54;100632.03;4156956;28;20016;-68
2023/12/14 06:57:03;;;;;;;;;;;;;;;4.80;95.75;100640.06;4157484;28;20020;-69
2023/12/14 06:59:04;;;;;;;;;;;;;;;4.80;95.45;100646.25;4156480;28;20032;-70
2023/12/14 07:01:07;;;;;;;;;;;;;;;4.81;95.58;100647.09;4157428;28;20016;-70
2023/12/14 07:03:09;;;;;;;;;;;;;;;4.82;95.31;100648.78;4157397;28;20020;-70
2023/12/14 07:05:13;;;;;;;;;;;;;;;4.81;95.23;100650.63;4155939;28;19983;-68
2023/12/14 07:07:15;;;;;;;;;;;;;;;4.81;95.09;100652.44;4157683;28;20238;-69
2023/12/14 07:09:17;;;;;;;;;;;;;;;4.80;95.00;100664.16;4157876;28;20365;-71
2023/12/14 07:11:18;;;;;;;;;;;;;;;4.78;95.24;100672.31;4156791;28;20028;-69
2023/12/14 07:13:21;;;;;;;;;;;;;;;4.78;94.99;100672.31;4157906;28;20024;-69
2023/12/14 07:15:23;;;;;;;;;;;;;;;4.77;95.26;100672.47;4153514;28;20015;-69
2023/12/14 07:17:26;;;;;;;;;;;;;;;4.79;95.05;100674.00;4152768;28;20028;-69
2023/12/14 07:19:28;;;;;;;;;;;;;;;4.80;95.07;100680.22;4155130;28;20028;-69
2023/12/14 07:21:30;;;;;;;;;;;;;;;4.78;94.86;100677.69;4154058;28;20486;-68
2023/12/14 07:23:32;;;;;;;;;;;;;;;4.78;95.02;100684.84;4154342;28;20008;-69
2023/12/14 07:25:34;;;;;;;;;;;;;;;4.80;95.25;100686.41;4155848;28;19926;-67
2023/12/14 07:27:35;;;;;;;;;;;;;;;4.79;94.98;100687.38;4155414;28;20032;-71
2023/12/14 07:29:37;;;;;;;;;;;;;;;4.78;95.29;100704.44;4153345;28;20024;-68
2023/12/14 07:31:39;;;;;;;;;;;;;;;4.80;94.97;100704.28;4154988;28;20012;-70
2023/12/14 07:33:43;;;;;;;;;;;;;;;4.80;95.27;100713.16;4154764;28;20464;-67
2023/12/14 07:35:45;;;;;;;;;;;;;;;4.80;94.92;100723.88;4154678;28;20097;-69
2023/12/14 07:37:47;;;;;;;;;;;;;;;4.80;95.16;100731.88;4150024;28;20008;-68
2023/12/14 07:39:49;;;;;;;;;;;;;;;4.80;94.91;100729.22;4155939;28;20008;-69
2023/12/14 07:41:51;;;;;;;;;;;;;;;4.80;95.00;100723.03;4156043;28;20442;-68
2023/12/14 07:43:53;;;;;;;;;;;;;;;4.79;94.57;100743.56;4156669;28;20023;-68
2023/12/14 07:45:55;;;;;;;;;;;;;;;4.79;94.78;100743.56;4156261;28;20406;-69
2023/12/14 07:47:56;;;;;;;;;;;;;;;4.81;94.92;100746.09;4157265;28;20020;-69
2023/12/14 07:49:59;;;;;;;;;;;;;;;4.79;94.71;100740.06;4156046;28;19925;-68
2023/12/14 07:52:01;;;;;;;;;;;;;;;4.79;95.11;100748.91;4138495;28;20024;-68
2023/12/14 07:54:04;;;;;;;;;;;;;;;4.80;95.18;100744.44;4156228;28;20048;-69
2023/12/14 07:56:06;;;;;;;;;;;;;;;4.79;95.33;100748.91;4152942;28;20023;-68
2023/12/14 07:58:07;;;;;;;;;;;;;;;4.81;95.17;100756.81;4155529;28;20470;-67
2023/12/14 08:00:10;;;;;;;;;;;;;;;4.83;95.61;100765.56;4155723;28;19936;-69
2023/12/14 08:02:11;;;;;;;;;;;;;;;4.81;95.33;100757.69;4156028;28;20011;-67
2023/12/14 08:04:13;;;;;;;;;;;;;;;4.83;95.21;100769.06;4155888;28;20020;-69
2023/12/14 08:06:17;;;;;;;;;;;;;;;4.83;95.51;100769.06;4155548;28;19929;-68
2023/12/14 08:08:19;;;;;;;;;;;;;;;4.84;95.73;100773.44;4155497;28;20024;-70
2023/12/14 08:10:21;;;;;;;;;;;;;;;4.86;95.72;100773.31;4155589;28;20040;-69
2023/12/14 08:12:24;;;;;;;;;;;;;;;4.86;95.60;100774.16;4153674;28;20016;-67
2023/12/14 08:14:26;;;;;;;;;;;;;;;4.87;95.66;100778.53;4155575;28;20020;-69
2023/12/14 08:16:28;;;;;;;;;;;;;;;4.86;95.48;100779.50;4156616;28;20458;-69
2023/12/14 08:18:30;;;;;;;;;;;;;;;4.86;95.68;100778.66;4155817;28;20859;-69
2023/12/14 08:20:32;;;;;;;;;;;;;;;4.81;95.61;100776.41;4152331;28;20027;-69
2023/12/14 08:22:35;;;;;;;;;;;;;;;4.85;95.15;100785.00;4155332;28;20043;-67
2023/12/14 08:24:37;;;;;;;;;;;;;;;4.82;95.04;100782.59;4149933;28;20024;-67
2023/12/14 08:26:39;;;;;;;;;;;;;;;4.82;95.31;100793.31;4155976;28;20854;-67
2023/12/14 08:28:41;;;;;;;;;;;;;;;4.82;95.21;100791.47;4153157;28;20016;-67
2023/12/14 08:30:43;;;;;;;;;;;;;;;4.83;95.15;100797.69;4154608;28;20020;-67
2023/12/14 08:32:45;;;;;;;;;;;;;;;4.83;95.01;100801.19;4155209;28;20011;-68
2023/12/14 08:34:47;;;;;;;;;;;;;;;4.85;95.22;100807.25;4151065;28;20032;-67
2023/12/14 08:36:48;;;;;;;;;;;;;;;4.84;94.97;100810.91;4155273;28;20015;-67
2023/12/14 08:38:51;;;;;;;;;;;;;;;4.83;94.61;100813.72;4154773;28;20016;-67
2023/12/14 08:40:52;;;;;;;;;;;;;;;4.85;94.82;100827.81;4155556;28;20020;-67
2023/12/14 08:42:54;;;;;;;;;;;;;;;4.83;94.69;100829.78;4155582;28;19937;-67
2023/12/14 08:44:55;;;;;;;;;;;;;;;4.84;95.02;100832.34;4155703;28;20016;-67
2023/12/14 08:46:57;;;;;;;;;;;;;;;4.85;94.95;100838.53;4154961;28;19999;-67
2023/12/14 08:48:58;;;;;;;;;;;;;;;4.86;94.79;100850.94;4149563;28;20004;-67
2023/12/14 08:51:00;;;;;;;;;;;;;;;4.84;94.68;100842.16;4155548;28;19983;-67
2023/12/14 08:53:04;;;;;;;;;;;;;;;4.86;95.05;100850.94;4155535;28;20020;-68
2023/12/14 08:55:08;;;;;;;;;;;;;;;4.87;95.09;100849.94;4155332;28;20020;-67
2023/12/14 08:57:09;;;;;;;;;;;;;;;4.86;95.07;100858.97;4149600;28;20016;-67
2023/12/14 08:59:11;;;;;;;;;;;;;;;4.87;95.03;100860.63;4155021;28;20024;-67
2023/12/14 09:01:19;;;;;;;;;;;;;;;4.87;94.99;100860.63;4153809;28;20027;-67
2023/12/14 09:03:21;;;;;;;;;;;;;;;4.86;94.68;100869.66;4154676;28;20023;-67
2023/12/14 09:05:23;;;;;;;;;;;;;;;4.86;94.49;100865.16;4154825;28;20013;-68
2023/12/14 09:07:24;;;;;;;;;;;;;;;4.87;94.45;100879.38;4153626;28;19936;-67
2023/12/14 09:09:26;;;;;;;;;;;;;;;4.86;94.25;100880.38;4154432;28;20358;-67
2023/12/14 09:11:29;;;;;;;;;;;;;;;4.85;94.34;100870.63;4153551;28;20020;-67
2023/12/14 09:13:30;;;;;;;;;;;;;;;4.85;94.20;100867.97;4152720;28;20024;-67
2023/12/14 09:15:32;;;;;;;;;;;;;;;4.85;94.51;100876.81;4154643;28;20366;-67
2023/12/14 09:17:34;;;;;;;;;;;;;;;4.85;94.20;100876.81;4155312;28;20028;-67
2023/12/14 09:19:36;;;;;;;;;;;;;;;4.86;94.29;100885.72;4153942;28;20024;-68
2023/12/14 09:21:38;;;;;;;;;;;;;;;4.84;94.46;100879.63;4154308;28;20039;-68
2023/12/14 09:23:41;;;;;;;;;;;;;;;4.85;94.41;100892.88;4154785;28;20016;-68
2023/12/14 09:25:43;;;;;;;;;;;;;;;4.85;94.49;100898.22;4154876;28;20012;-68
2023/12/14 09:27:46;;;;;;;;;;;;;;;4.86;94.62;100901.78;4155176;28;19932;-67
2023/12/14 09:29:48;;;;;;;;;;;;;;;4.86;94.50;100905.28;4150132;28;20048;-67
2023/12/14 09:31:51;;;;;;;;;;;;;;;4.86;94.74;100901.78;4152899;28;19953;-69
2023/12/14 09:33:52;;;;;;;;;;;;;;;4.85;94.26;100913.44;4153997;28;20011;-68
2023/12/14 09:35:54;;;;;;;;;;;;;;;4.87;94.37;100906.13;4154867;28;20025;-68
2023/12/14 09:37:56;;;;;;;;;;;;;;;4.87;94.25;100916.84;4154768;28;20020;-70
2023/12/14 09:39:59;;;;;;;;;;;;;;;4.88;94.35;100914.03;4154265;28;20024;-67
2023/12/14 09:42:04;;;;;;;;;;;;;;;4.89;94.36;100922.91;4153959;28;20016;-68
2023/12/14 09:44:08;;;;;;;;;;;;;;;4.87;94.39;100916.84;4154322;28;20023;-69
2023/12/14 09:46:10;;;;;;;;;;;;;;;4.87;94.62;100925.72;4154741;28;20051;-68
2023/12/14 09:48:13;;;;;;;;;;;;;;;4.88;94.32;100934.59;4151961;28;20442;-67
2023/12/14 09:50:14;;;;;;;;;;;;;;;4.88;94.75;100927.41;4152143;28;19964;-68
2023/12/14 09:52:17;;;;;;;;;;;;;;;4.88;94.41;100931.91;4154293;28;20083;-70
2023/12/14 09:54:18;;;;;;;;;;;;;;;4.87;94.17;100939.09;4151090;28;20093;-71
2023/12/14 09:56:20;;;;;;;;;;;;;;;4.88;94.62;100942.63;4155106;28;20012;-68
2023/12/14 09:58:22;;;;;;;;;;;;;;;4.87;94.36;100941.78;4154667;28;20020;-68
2023/12/14 10:00:34;;;;;;;;;;;;;;;4.88;94.15;100946.13;4149194;28;20482;-68
2023/12/14 10:02:36;;;;;;;;;;;;;;;4.87;94.09;100944.47;4151687;28;20015;-68
2023/12/14 10:04:37;;;;;;;;;;;;;;;4.88;94.29;100945.28;4154591;28;20016;-70
2023/12/14 10:06:40;;;;;;;;;;;;;;;4.87;94.26;100944.47;4154359;28;20024;-68
2023/12/14 10:08:42;;;;;;;;;;;;;;;4.88;94.52;100951.50;4154761;28;20375;-68
2023/12/14 10:10:43;;;;;;;;;;;;;;;4.88;94.25;100947.97;4154605;28;20033;-67
2023/12/14 10:12:54;;;;;;;;;;;;;;;4.88;94.03;100942.63;4154903;28;20016;-69
2023/12/14 10:15:01;;;;;;;;;;;;;;;4.90;93.93;100947.84;4154125;28;20013;-69
2023/12/14 10:17:16;;;;;;;;;;;;;;;4.89;93.74;100949.69;4154477;28;20036;-68
2023/12/14 10:19:19;;;;;;;;;;;;;;;4.89;94.00;100955.03;4154062;28;20374;-67
2023/12/14 10:21:20;;;;;;;;;;;;;;;4.92;94.06;100961.94;4154573;28;20039;-68
2023/12/14 10:23:22;;;;;;;;;;;;;;;4.95;94.22;100965.16;4154889;28;20027;-67
2023/12/14 10:25:25;;;;;;;;;;;;;;;4.95;94.45;100961.66;4154105;28;20016;-68
2023/12/14 10:27:27;;;;;;;;;;;;;;;4.94;94.20;100968.00;4154490;28;20016;-67
2023/12/14 10:29:29;;;;;;;;;;;;;;;4.94;94.05;100968.00;4152636;28;20493;-67
2023/12/14 10:31:31;;;;;;;;;;;;;;;4.94;94.12;100971.53;4149387;28;20016;-68
2023/12/14 10:33:34;;;;;;;;;;;;;;;4.94;93.85;100960.81;4154480;28;20028;-68
2023/12/14 10:35:35;;;;;;;;;;;;;;;4.94;94.10;100968.00;4153304;28;20025;-68
2023/12/14 10:37:38;;;;;;;;;;;;;;;4.96;94.47;100969.56;4136975;28;20593;-67